sensor_id;sensor_type;location;lat;lon;timestamp;pressure;altitude;pressure_sealevel;temperature;humidity
37648;BME280;23490;53.656;10.076;2022-10-15T00:02:08;98662.22;;;-145.95;100.00
37648;BME280;23490;53.656;10.076;2022-10-15T00:04:34;98664.28;;;-145.95;100.00
37648;BME280;23490;53.656;10.076;2022-10-15T00:06:59;98670.47;;;-145.95;100.00
37648;BME280;23490;53.656;10.076;2022-10-15T00:09:24;98629.19;;;-145.95;100.00
37648;BME280;23490;53.656;10.076;2022-10-15T00:11:50;98691.13;;;-145.95;100.00
37648;BME280;23490;53.656;10.076;2022-10-15T00:14:16;98691.13;;;-145.95;100.00
37648;BME280;23490;53.656;10.076;2022-10-15T00:16:41;98691.13;;;-145.95;100.00
37648;BME280;23490;53.656;10.076;2022-10-15T00:19:08;98649.84;;;-145.95;100.00
37648;BME280;23490;53.656;10.076;2022-10-15T00:21:34;98631.25;;;-145.95;100.00
37648;BME280;23490;53.656;10.076;2022-10-15T00:24:00;98658.09;;;-145.95;100.00
37648;BME280;23490;53.656;10.076;2022-10-15T00:26:27;98684.94;;;-145.95;100.00
37648;BME280;23490;53.656;10.076;2022-10-15T00:28:54;98649.84;;;-145.95;100.00
37648;BME280;23490;53.656;10.076;2022-10-15T00:31:20;98612.66;;;-145.95;100.00
37648;BME280;23490;53.656;10.076;2022-10-15T00:33:49;98658.09;;;-145.95;100.00
37648;BME280;23490;53.656;10.076;2022-10-15T00:36:18;98664.28;;;-145.95;100.00
37648;BME280;23490;53.656;10.076;2022-10-15T00:38:44;98687.00;;;-145.95;100.00
37648;BME280;23490;53.656;10.076;2022-10-15T00:41:21;98666.34;;;-145.95;100.00
37648;BME280;23490;53.656;10.076;2022-10-15T00:46:36;98678.75;;;-145.95;100.00
37648;BME280;23490;53.656;10.076;2022-10-15T00:49:27;98637.44;;;-145.95;100.00
37648;BME280;23490;53.656;10.076;2022-10-15T00:51:59;98662.22;;;-145.95;100.00
37648;BME280;23490;53.656;10.076;2022-10-15T00:54:30;98703.53;;;-145.95;100.00
37648;BME280;23490;53.656;10.076;2022-10-15T00:56:56;98674.59;;;-145.95;100.00
37648;BME280;23490;53.656;10.076;2022-10-15T00:59:24;98676.69;;;-145.95;100.00
37648;BME280;23490;53.656;10.076;2022-10-15T01:01:51;98637.44;;;-145.95;100.00
37648;BME280;23490;53.656;10.076;2022-10-15T01:04:16;98645.69;;;-145.95;100.00
37648;BME280;23490;53.656;10.076;2022-10-15T01:06:44;98641.56;;;-145.95;100.00
37648;BME280;23490;53.656;10.076;2022-10-15T01:09:10;98662.22;;;-145.95;100.00
37648;BME280;23490;53.656;10.076;2022-10-15T01:11:40;98651.91;;;-145.95;100.00
37648;BME280;23490;53.656;10.076;2022-10-15T01:28:21;98637.44;;;-145.95;100.00
37648;BME280;23490;53.656;10.076;2022-10-15T01:30:57;98645.69;;;-145.95;100.00
37648;BME280;23490;53.656;10.076;2022-10-15T01:33:25;98728.28;;;-145.95;100.00
37648;BME280;23490;53.656;10.076;2022-10-15T01:36:12;98674.59;;;-145.95;100.00
37648;BME280;23490;53.656;10.076;2022-10-15T01:38:59;98647.78;;;-145.95;100.00
37648;BME280;23490;53.656;10.076;2022-10-15T01:41:34;98662.22;;;-145.95;100.00
37648;BME280;23490;53.656;10.076;2022-10-15T01:44:10;98672.53;;;-145.95;100.00
37648;BME280;23490;53.656;10.076;2022-10-15T01:46:46;98649.84;;;-145.95;100.00
37648;BME280;23490;53.656;10.076;2022-10-15T01:49:16;98687.00;;;-145.95;100.00
37648;BME280;23490;53.656;10.076;2022-10-15T01:51:46;98678.75;;;-145.95;100.00
37648;BME280;23490;53.656;10.076;2022-10-15T01:54:14;98666.34;;;-145.95;100.00
37648;BME280;23490;53.656;10.076;2022-10-15T01:56:43;98633.31;;;-145.95;100.00
37648;BME280;23490;53.656;10.076;2022-10-15T01:59:15;98682.88;;;-145.95;100.00
37648;BME280;23490;53.656;10.076;2022-10-15T02:01:42;98670.47;;;-145.95;100.00
37648;BME280;23490;53.656;10.076;2022-10-15T02:04:19;98711.78;;;-145.95;100.00
37648;BME280;23490;53.656;10.076;2022-10-15T02:06:49;98707.66;;;-145.95;100.00
37648;BME280;23490;53.656;10.076;2022-10-15T02:09:42;98695.25;;;-145.95;100.00
37648;BME280;23490;53.656;10.076;2022-10-15T02:14:56;98664.28;;;-145.95;100.00
37648;BME280;23490;53.656;10.076;2022-10-15T02:20:23;98724.16;;;-145.95;100.00
37648;BME280;23490;53.656;10.076;2022-10-15T02:23:02;98707.66;;;-145.95;100.00
37648;BME280;23490;53.656;10.076;2022-10-15T02:25:29;98707.66;;;-145.95;100.00
37648;BME280;23490;53.656;10.076;2022-10-15T02:27:56;98724.16;;;-145.95;100.00
37648;BME280;23490;53.656;10.076;2022-10-15T02:30:25;98759.25;;;-145.95;100.00
37648;BME280;23490;53.656;10.076;2022-10-15T02:32:53;98715.91;;;-145.95;100.00
37648;BME280;23490;53.656;10.076;2022-10-15T02:35:21;98713.84;;;-145.95;100.00
37648;BME280;23490;53.656;10.076;2022-10-15T02:37:49;98740.69;;;-145.95;100.00
37648;BME280;23490;53.656;10.076;2022-10-15T02:40:16;98726.22;;;-145.95;100.00
37648;BME280;23490;53.656;10.076;2022-10-15T02:42:41;98732.44;;;-145.95;100.00
37648;BME280;23490;53.656;10.076;2022-10-15T02:45:07;98728.28;;;-145.95;100.00
37648;BME280;23490;53.656;10.076;2022-10-15T02:47:33;98691.13;;;-145.95;100.00
37648;BME280;23490;53.656;10.076;2022-10-15T02:49:58;98732.44;;;-145.95;100.00
37648;BME280;23490;53.656;10.076;2022-10-15T02:52:24;98730.34;;;-145.95;100.00
37648;BME280;23490;53.656;10.076;2022-10-15T02:54:49;98753.06;;;-145.95;100.00
37648;BME280;23490;53.656;10.076;2022-10-15T02:57:15;98724.16;;;-145.95;100.00
37648;BME280;23490;53.656;10.076;2022-10-15T02:59:40;98748.94;;;-145.95;100.00
37648;BME280;23490;53.656;10.076;2022-10-15T03:02:06;98740.69;;;-145.95;100.00
37648;BME280;23490;53.656;10.076;2022-10-15T03:04:31;98773.72;;;-145.95;100.00
37648;BME280;23490;53.656;10.076;2022-10-15T03:06:57;98781.97;;;-145.95;100.00
37648;BME280;23490;53.656;10.076;2022-10-15T03:09:22;98757.19;;;-145.95;100.00
37648;BME280;23490;53.656;10.076;2022-10-15T03:11:47;98759.25;;;-145.95;100.00
37648;BME280;23490;53.656;10.076;2022-10-15T03:14:13;98777.84;;;-145.95;100.00
37648;BME280;23490;53.656;10.076;2022-10-15T03:16:38;98765.47;;;-145.95;100.00
37648;BME280;23490;53.656;10.076;2022-10-15T03:19:04;98765.47;;;-145.95;100.00
37648;BME280;23490;53.656;10.076;2022-10-15T03:21:29;98755.13;;;-145.95;100.00
37648;BME280;23490;53.656;10.076;2022-10-15T03:23:55;98788.19;;;-145.95;100.00
37648;BME280;23490;53.656;10.076;2022-10-15T03:26:21;98798.50;;;-145.95;100.00
37648;BME280;23490;53.656;10.076;2022-10-15T03:28:46;98794.38;;;-145.95;100.00
37648;BME280;23490;53.656;10.076;2022-10-15T03:31:11;98794.38;;;-145.95;100.00
37648;BME280;23490;53.656;10.076;2022-10-15T03:33:38;98835.66;;;-145.95;100.00
37648;BME280;23490;53.656;10.076;2022-10-15T03:36:03;98831.53;;;-145.95;100.00
37648;BME280;23490;53.656;10.076;2022-10-15T03:38:29;98866.63;;;-145.95;100.00
37648;BME280;23490;53.656;10.076;2022-10-15T03:40:54;98831.53;;;-145.95;100.00
37648;BME280;23490;53.656;10.076;2022-10-15T03:43:23;98889.34;;;-145.95;100.00
37648;BME280;23490;53.656;10.076;2022-10-15T03:45:49;98819.16;;;-145.95;100.00
37648;BME280;23490;53.656;10.076;2022-10-15T03:48:14;98829.47;;;-145.95;100.00
37648;BME280;23490;53.656;10.076;2022-10-15T03:50:39;98876.97;;;-145.95;100.00
37648;BME280;23490;53.656;10.076;2022-10-15T03:53:05;98819.16;;;-145.95;100.00
37648;BME280;23490;53.656;10.076;2022-10-15T03:55:31;98835.66;;;-145.95;100.00
37648;BME280;23490;53.656;10.076;2022-10-15T03:57:56;98843.94;;;-145.95;100.00
37648;BME280;23490;53.656;10.076;2022-10-15T04:00:21;98889.34;;;-145.95;100.00
37648;BME280;23490;53.656;10.076;2022-10-15T04:02:46;98864.56;;;-145.95;100.00
37648;BME280;23490;53.656;10.076;2022-10-15T04:05:12;98874.91;;;-145.95;100.00
37648;BME280;23490;53.656;10.076;2022-10-15T04:07:37;98798.50;;;-145.95;100.00
37648;BME280;23490;53.656;10.076;2022-10-15T04:10:03;98864.56;;;-145.95;100.00
37648;BME280;23490;53.656;10.076;2022-10-15T04:12:28;98885.22;;;-145.95;100.00
37648;BME280;23490;53.656;10.076;2022-10-15T04:14:53;98889.34;;;-145.95;100.00
37648;BME280;23490;53.656;10.076;2022-10-15T04:17:19;98860.44;;;-145.95;100.00
37648;BME280;23490;53.656;10.076;2022-10-15T04:19:44;98895.53;;;-145.95;100.00
37648;BME280;23490;53.656;10.076;2022-10-15T04:22:09;98930.66;;;-145.95;100.00
37648;BME280;23490;53.656;10.076;2022-10-15T04:24:35;98885.22;;;-145.95;100.00
37648;BME280;23490;53.656;10.076;2022-10-15T04:27:00;98891.41;;;-145.95;100.00
37648;BME280;23490;53.656;10.076;2022-10-15T04:29:26;98868.72;;;-145.95;100.00
37648;BME280;23490;53.656;10.076;2022-10-15T04:31:51;98907.94;;;-145.95;100.00
37648;BME280;23490;53.656;10.076;2022-10-15T04:34:16;98930.66;;;-145.95;100.00
37648;BME280;23490;53.656;10.076;2022-10-15T04:36:42;98876.97;;;-145.95;100.00
37648;BME280;23490;53.656;10.076;2022-10-15T04:39:07;98922.41;;;-145.95;100.00
37648;BME280;23490;53.656;10.076;2022-10-15T04:41:32;98885.22;;;-145.95;100.00
37648;BME280;23490;53.656;10.076;2022-10-15T04:43:58;98910.00;;;-145.95;100.00
37648;BME280;23490;53.656;10.076;2022-10-15T04:46:24;98897.63;;;-145.95;100.00
37648;BME280;23490;53.656;10.076;2022-10-15T04:48:49;98856.31;;;-145.95;100.00
37648;BME280;23490;53.656;10.076;2022-10-15T04:51:17;98835.66;;;-145.95;100.00
37648;BME280;23490;53.656;10.076;2022-10-15T04:53:44;98864.56;;;-145.95;100.00
37648;BME280;23490;53.656;10.076;2022-10-15T04:56:11;98901.75;;;-145.95;100.00
37648;BME280;23490;53.656;10.076;2022-10-15T04:58:43;98872.84;;;-145.95;100.00
37648;BME280;23490;53.656;10.076;2022-10-15T05:01:12;98831.53;;;-145.95;100.00
37648;BME280;23490;53.656;10.076;2022-10-15T05:03:39;98823.28;;;-145.95;100.00
37648;BME280;23490;53.656;10.076;2022-10-15T05:06:08;98852.19;;;-145.95;100.00
37648;BME280;23490;53.656;10.076;2022-10-15T05:08:35;98862.50;;;-145.95;100.00
37648;BME280;23490;53.656;10.076;2022-10-15T05:11:05;98885.22;;;-145.95;100.00
37648;BME280;23490;53.656;10.076;2022-10-15T05:13:32;98876.97;;;-145.95;100.00
37648;BME280;23490;53.656;10.076;2022-10-15T05:16:07;98868.72;;;-145.95;100.00
37648;BME280;23490;53.656;10.076;2022-10-15T05:18:33;98848.06;;;-145.95;100.00
37648;BME280;23490;53.656;10.076;2022-10-15T05:21:00;98860.44;;;-145.95;100.00
37648;BME280;23490;53.656;10.076;2022-10-15T05:23:25;98843.94;;;-145.95;100.00
37648;BME280;23490;53.656;10.076;2022-10-15T05:25:51;98835.66;;;-145.95;100.00
37648;BME280;23490;53.656;10.076;2022-10-15T05:28:16;98833.59;;;-145.95;100.00
37648;BME280;23490;53.656;10.076;2022-10-15T05:30:41;98833.59;;;-145.95;100.00
37648;BME280;23490;53.656;10.076;2022-10-15T05:33:07;98823.28;;;-145.95;100.00
37648;BME280;23490;53.656;10.076;2022-10-15T05:35:32;98839.78;;;-145.95;100.00
37648;BME280;23490;53.656;10.076;2022-10-15T05:37:57;98831.53;;;-145.95;100.00
37648;BME280;23490;53.656;10.076;2022-10-15T05:40:23;98843.94;;;-145.95;100.00
37648;BME280;23490;53.656;10.076;2022-10-15T05:42:51;98860.44;;;-145.95;100.00
37648;BME280;23490;53.656;10.076;2022-10-15T05:45:17;98843.94;;;-145.95;100.00
37648;BME280;23490;53.656;10.076;2022-10-15T05:47:43;98835.66;;;-145.95;100.00
37648;BME280;23490;53.656;10.076;2022-10-15T05:50:08;98860.44;;;-145.95;100.00
37648;BME280;23490;53.656;10.076;2022-10-15T05:52:33;98829.47;;;-145.95;100.00
37648;BME280;23490;53.656;10.076;2022-10-15T05:54:59;98839.78;;;-145.95;100.00
37648;BME280;23490;53.656;10.076;2022-10-15T05:57:25;98843.94;;;-145.95;100.00
37648;BME280;23490;53.656;10.076;2022-10-15T05:59:51;98819.16;;;-145.95;100.00
37648;BME280;23490;53.656;10.076;2022-10-15T06:02:16;98835.66;;;-145.95;100.00
37648;BME280;23490;53.656;10.076;2022-10-15T06:04:41;98802.63;;;-145.95;100.00
37648;BME280;23490;53.656;10.076;2022-10-15T06:07:07;98819.16;;;-145.95;100.00
37648;BME280;23490;53.656;10.076;2022-10-15T06:09:33;98835.66;;;-145.95;100.00
37648;BME280;23490;53.656;10.076;2022-10-15T06:11:58;98854.25;;;-145.95;100.00
37648;BME280;23490;53.656;10.076;2022-10-15T06:14:23;98846.00;;;-145.95;100.00
37648;BME280;23490;53.656;10.076;2022-10-15T06:16:49;98852.19;;;-145.95;100.00
37648;BME280;23490;53.656;10.076;2022-10-15T06:19:15;98856.31;;;-145.95;100.00
37648;BME280;23490;53.656;10.076;2022-10-15T06:21:40;98823.28;;;-145.95;100.00
37648;BME280;23490;53.656;10.076;2022-10-15T06:24:06;98839.78;;;-145.95;100.00
37648;BME280;23490;53.656;10.076;2022-10-15T06:26:31;98806.75;;;-145.95;100.00
37648;BME280;23490;53.656;10.076;2022-10-15T06:28:56;98850.13;;;-145.95;100.00
37648;BME280;23490;53.656;10.076;2022-10-15T06:31:23;98839.78;;;-145.95;100.00
37648;BME280;23490;53.656;10.076;2022-10-15T06:33:48;98823.28;;;-145.95;100.00
37648;BME280;23490;53.656;10.076;2022-10-15T06:36:14;98806.75;;;-145.95;100.00
37648;BME280;23490;53.656;10.076;2022-10-15T06:38:39;98773.72;;;-145.95;100.00
37648;BME280;23490;53.656;10.076;2022-10-15T06:41:08;98872.84;;;-145.95;100.00
37648;BME280;23490;53.656;10.076;2022-10-15T06:43:33;98837.72;;;-145.95;100.00
37648;BME280;23490;53.656;10.076;2022-10-15T06:45:59;98802.63;;;-145.95;100.00
37648;BME280;23490;53.656;10.076;2022-10-15T06:48:24;98827.41;;;-145.95;100.00
37648;BME280;23490;53.656;10.076;2022-10-15T06:50:50;98872.84;;;-145.95;100.00
37648;BME280;23490;53.656;10.076;2022-10-15T06:53:16;98856.31;;;-145.95;100.00
37648;BME280;23490;53.656;10.076;2022-10-15T06:55:41;98831.53;;;-145.95;100.00
37648;BME280;23490;53.656;10.076;2022-10-15T06:58:07;98835.66;;;-145.95;100.00
37648;BME280;23490;53.656;10.076;2022-10-15T07:00:32;98831.53;;;-145.95;100.00
37648;BME280;23490;53.656;10.076;2022-10-15T07:03:05;98843.94;;;-145.95;100.00
37648;BME280;23490;53.656;10.076;2022-10-15T07:05:31;98815.03;;;-145.95;100.00
37648;BME280;23490;53.656;10.076;2022-10-15T07:07:57;98825.34;;;-145.95;100.00
37648;BME280;23490;53.656;10.076;2022-10-15T07:10:24;98827.41;;;-145.95;100.00
37648;BME280;23490;53.656;10.076;2022-10-15T07:12:49;98815.03;;;-145.95;100.00
37648;BME280;23490;53.656;10.076;2022-10-15T07:15:15;98794.38;;;-145.95;100.00
37648;BME280;23490;53.656;10.076;2022-10-15T07:17:51;98841.84;;;-145.95;100.00
37648;BME280;23490;53.656;10.076;2022-10-15T07:20:19;98827.41;;;-145.95;100.00
37648;BME280;23490;53.656;10.076;2022-10-15T07:22:44;98827.41;;;-145.95;100.00
37648;BME280;23490;53.656;10.076;2022-10-15T07:25:10;98808.81;;;-145.95;100.00
37648;BME280;23490;53.656;10.076;2022-10-15T07:27:39;98831.53;;;-145.95;100.00
37648;BME280;23490;53.656;10.076;2022-10-15T07:30:06;98798.50;;;-145.95;100.00
37648;BME280;23490;53.656;10.076;2022-10-15T07:32:31;98761.34;;;-145.95;100.00
37648;BME280;23490;53.656;10.076;2022-10-15T07:34:57;98794.38;;;-145.95;100.00
37648;BME280;23490;53.656;10.076;2022-10-15T07:37:22;98781.97;;;-145.95;100.00
37648;BME280;23490;53.656;10.076;2022-10-15T07:39:47;98777.84;;;-145.95;100.00
37648;BME280;23490;53.656;10.076;2022-10-15T07:42:13;98790.25;;;-145.95;100.00
37648;BME280;23490;53.656;10.076;2022-10-15T07:44:38;98812.94;;;-145.95;100.00
37648;BME280;23490;53.656;10.076;2022-10-15T07:47:03;98800.56;;;-145.95;100.00
37648;BME280;23490;53.656;10.076;2022-10-15T07:49:29;98841.84;;;-145.95;100.00
37648;BME280;23490;53.656;10.076;2022-10-15T07:51:54;98773.72;;;-145.95;100.00
37648;BME280;23490;53.656;10.076;2022-10-15T07:54:19;98744.81;;;-145.95;100.00
37648;BME280;23490;53.656;10.076;2022-10-15T07:56:45;98765.47;;;-145.95;100.00
37648;BME280;23490;53.656;10.076;2022-10-15T07:59:10;98748.94;;;-145.95;100.00
37648;BME280;23490;53.656;10.076;2022-10-15T08:01:35;98748.94;;;-145.95;100.00
37648;BME280;23490;53.656;10.076;2022-10-15T08:04:00;98711.78;;;-145.95;100.00
37648;BME280;23490;53.656;10.076;2022-10-15T08:06:26;98744.81;;;-145.95;100.00
37648;BME280;23490;53.656;10.076;2022-10-15T08:08:51;98711.78;;;-145.95;100.00
37648;BME280;23490;53.656;10.076;2022-10-15T08:11:17;98734.50;;;-145.95;100.00
37648;BME280;23490;53.656;10.076;2022-10-15T08:13:43;98732.44;;;-145.95;100.00
37648;BME280;23490;53.656;10.076;2022-10-15T08:16:13;98728.28;;;-145.95;100.00
37648;BME280;23490;53.656;10.076;2022-10-15T08:18:38;98711.78;;;-145.95;100.00
37648;BME280;23490;53.656;10.076;2022-10-15T08:21:05;98635.38;;;-145.95;100.00
37648;BME280;23490;53.656;10.076;2022-10-15T08:23:32;98670.47;;;-145.95;100.00
37648;BME280;23490;53.656;10.076;2022-10-15T08:25:58;98633.31;;;-145.95;99.05
37648;BME280;23490;53.656;10.076;2022-10-15T08:28:25;98637.44;;;-145.95;98.90
37648;BME280;23490;53.656;10.076;2022-10-15T08:30:51;98573.44;;;-145.95;98.63
37648;BME280;23490;53.656;10.076;2022-10-15T08:33:16;98600.28;;;-145.95;98.97
37648;BME280;23490;53.656;10.076;2022-10-15T08:35:42;98641.56;;;-145.95;99.49
37648;BME280;23490;53.656;10.076;2022-10-15T08:38:09;98579.63;;;-145.95;98.43
37648;BME280;23490;53.656;10.076;2022-10-15T08:40:35;98554.84;;;-145.95;99.19
37648;BME280;23490;53.656;10.076;2022-10-15T08:43:01;98521.81;;;-145.95;99.31
37648;BME280;23490;53.656;10.076;2022-10-15T08:45:30;98519.75;;;-145.95;95.76
37648;BME280;23490;53.656;10.076;2022-10-15T08:48:05;98517.69;;;-145.95;95.25
37648;BME280;23490;53.656;10.076;2022-10-15T08:50:58;98625.06;;;-145.95;93.63
37648;BME280;23490;53.656;10.076;2022-10-15T08:53:25;98521.81;;;-145.95;95.12
37648;BME280;23490;53.656;10.076;2022-10-15T08:55:54;98530.06;;;-145.95;91.85
37648;BME280;23490;53.656;10.076;2022-10-15T09:01:27;98554.84;;;-145.95;93.38
37648;BME280;23490;53.656;10.076;2022-10-15T09:04:21;98534.22;;;-145.95;92.67
37648;BME280;23490;53.656;10.076;2022-10-15T09:06:58;98513.56;;;-145.95;93.50
37648;BME280;23490;53.656;10.076;2022-10-15T09:09:50;98513.56;;;-145.95;93.06
37648;BME280;23490;53.656;10.076;2022-10-15T09:12:36;98470.19;;;-145.95;94.81
37648;BME280;23490;53.656;10.076;2022-10-15T09:15:13;98484.66;;;-145.95;93.01
37648;BME280;23490;53.656;10.076;2022-10-15T09:17:40;98470.19;;;-145.95;92.90
37648;BME280;23490;53.656;10.076;2022-10-15T09:20:14;98490.84;;;-145.95;91.39
37648;BME280;23490;53.656;10.076;2022-10-15T09:22:41;98484.66;;;-145.95;90.79
37648;BME280;23490;53.656;10.076;2022-10-15T09:25:14;98521.81;;;-145.95;90.75
37648;BME280;23490;53.656;10.076;2022-10-15T09:27:39;98453.69;;;-145.95;91.47
37648;BME280;23490;53.656;10.076;2022-10-15T09:30:17;98397.94;;;-145.95;89.79
37648;BME280;23490;53.656;10.076;2022-10-15T09:32:59;98455.75;;;-145.95;89.59
37648;BME280;23490;53.656;10.076;2022-10-15T09:35:36;98410.34;;;-145.95;88.21
37648;BME280;23490;53.656;10.076;2022-10-15T09:38:24;98298.84;;;-145.95;89.39
37648;BME280;23490;53.656;10.076;2022-10-15T09:43:43;98245.16;;;-145.95;84.27
37648;BME280;23490;53.656;10.076;2022-10-15T09:46:10;98179.09;;;-145.95;81.56
37648;BME280;23490;53.656;10.076;2022-10-15T09:48:44;98150.19;;;-145.95;82.55
37648;BME280;23490;53.656;10.076;2022-10-15T09:51:16;98030.47;;;-145.95;78.64
37648;BME280;23490;53.656;10.076;2022-10-15T09:53:58;98197.69;;;-145.95;79.49
37648;BME280;23490;53.656;10.076;2022-10-15T09:56:40;98108.91;;;-145.95;77.94
37648;BME280;23490;53.656;10.076;2022-10-15T09:59:15;98059.38;;;-145.95;78.30
37648;BME280;23490;53.656;10.076;2022-10-15T10:01:55;98080.00;;;-145.95;74.49
37648;BME280;23490;53.656;10.076;2022-10-15T10:04:20;98059.38;;;-145.95;78.21
37648;BME280;23490;53.656;10.076;2022-10-15T10:06:49;97914.84;;;-145.95;73.50
37648;BME280;23490;53.656;10.076;2022-10-15T10:09:38;97935.50;;;-145.95;72.61
37648;BME280;23490;53.656;10.076;2022-10-15T10:12:18;97821.97;;;-145.95;72.57
37648;BME280;23490;53.656;10.076;2022-10-15T10:14:57;97815.78;;;-145.95;69.91
37648;BME280;23490;53.656;10.076;2022-10-15T10:17:24;98034.59;;;-145.95;71.04
37648;BME280;23490;53.656;10.076;2022-10-15T10:22:58;97954.09;;;-145.95;71.37
37648;BME280;23490;53.656;10.076;2022-10-15T10:25:39;97989.19;;;-145.95;72.22
37648;BME280;23490;53.656;10.076;2022-10-15T10:30:49;97910.72;;;-145.95;73.66
37648;BME280;23490;53.656;10.076;2022-10-15T10:33:24;97832.28;;;-145.95;70.93
37648;BME280;23490;53.656;10.076;2022-10-15T10:35:51;97795.13;;;-145.95;70.61
37648;BME280;23490;53.656;10.076;2022-10-15T10:38:23;97774.50;;;-145.95;68.00
37648;BME280;23490;53.656;10.076;2022-10-15T10:40:50;97720.81;;;-145.95;67.70
37648;BME280;23490;53.656;10.076;2022-10-15T10:45:55;97867.38;;;-145.95;69.83
37648;BME280;23490;53.656;10.076;2022-10-15T10:48:26;97877.69;;;-145.95;70.59
37648;BME280;23490;53.656;10.076;2022-10-15T10:51:23;97727.00;;;-145.95;66.30
37648;BME280;23490;53.656;10.076;2022-10-15T10:53:58;97737.34;;;-145.95;68.31
37648;BME280;23490;53.656;10.076;2022-10-15T10:56:39;97782.75;;;-145.95;67.42
37648;BME280;23490;53.656;10.076;2022-10-15T10:59:16;97869.44;;;-145.95;68.19
37648;BME280;23490;53.656;10.076;2022-10-15T11:01:43;97819.91;;;-145.95;68.50
37648;BME280;23490;53.656;10.076;2022-10-15T11:04:16;97894.22;;;-145.95;68.98
37648;BME280;23490;53.656;10.076;2022-10-15T11:07:16;97931.38;;;-145.95;70.06
37648;BME280;23490;53.656;10.076;2022-10-15T11:15:58;97964.41;;;-145.95;71.68
37648;BME280;23490;53.656;10.076;2022-10-15T11:18:30;97894.22;;;-145.95;69.85
37648;BME280;23490;53.656;10.076;2022-10-15T11:24:04;97875.63;;;-145.95;68.16
37648;BME280;23490;53.656;10.076;2022-10-15T11:26:59;97861.19;;;-145.95;68.27
37648;BME280;23490;53.656;10.076;2022-10-15T11:29:30;97869.44;;;-145.95;68.23
37648;BME280;23490;53.656;10.076;2022-10-15T11:40:45;97931.38;;;-145.95;69.10
37648;BME280;23490;53.656;10.076;2022-10-15T11:46:38;97910.72;;;-145.95;69.13
37648;BME280;23490;53.656;10.076;2022-10-15T11:52:24;97555.69;;;-145.95;66.50
37648;BME280;23490;53.656;10.076;2022-10-15T11:55:17;97667.16;;;-145.95;63.46
37648;BME280;23490;53.656;10.076;2022-10-15T11:57:46;97778.63;;;-145.95;64.51
37648;BME280;23490;53.656;10.076;2022-10-15T12:00:24;97803.38;;;-145.95;65.89
37648;BME280;23490;53.656;10.076;2022-10-15T12:03:00;97788.94;;;-145.95;63.49
37648;BME280;23490;53.656;10.076;2022-10-15T12:05:34;97788.94;;;-145.95;61.50
37648;BME280;23490;53.656;10.076;2022-10-15T12:08:02;97840.53;;;-145.95;64.04
37648;BME280;23490;53.656;10.076;2022-10-15T12:10:50;97630.00;;;-145.95;63.68
37648;BME280;23490;53.656;10.076;2022-10-15T12:18:59;97390.56;;;-145.95;58.36
37648;BME280;23490;53.656;10.076;2022-10-15T12:21:33;97691.91;;;-145.95;58.98
37648;BME280;23490;53.656;10.076;2022-10-15T12:23:59;97735.28;;;-145.95;60.16
37648;BME280;23490;53.656;10.076;2022-10-15T12:26:30;97630.00;;;-145.95;61.68
37648;BME280;23490;53.656;10.076;2022-10-15T12:29:05;97584.59;;;-145.95;61.24
37648;BME280;23490;53.656;10.076;2022-10-15T12:31:48;97650.63;;;-145.95;60.70
37648;BME280;23490;53.656;10.076;2022-10-15T12:34:35;97520.59;;;-145.95;60.93
37648;BME280;23490;53.656;10.076;2022-10-15T12:37:12;97419.47;;;-145.95;59.04
37648;BME280;23490;53.656;10.076;2022-10-15T12:39:42;97551.56;;;-145.95;55.75
37648;BME280;23490;53.656;10.076;2022-10-15T12:42:22;97677.47;;;-145.95;57.29
37648;BME280;23490;53.656;10.076;2022-10-15T12:44:50;97592.84;;;-145.95;57.37
37648;BME280;23490;53.656;10.076;2022-10-15T12:47:53;97679.53;;;-145.95;59.12
37648;BME280;23490;53.656;10.076;2022-10-15T12:50:26;97497.88;;;-145.95;57.51
37648;BME280;23490;53.656;10.076;2022-10-15T12:55:32;97518.53;;;-145.95;57.79
37648;BME280;23490;53.656;10.076;2022-10-15T13:00:44;97475.19;;;-145.95;58.40
37648;BME280;23490;53.656;10.076;2022-10-15T13:03:34;97563.94;;;-145.95;58.74
37648;BME280;23490;53.656;10.076;2022-10-15T13:06:15;97665.09;;;-145.95;59.16
37648;BME280;23490;53.656;10.076;2022-10-15T13:11:45;97698.13;;;-145.95;58.89
37648;BME280;23490;53.656;10.076;2022-10-15T13:14:27;97691.91;;;-145.95;59.28
37648;BME280;23490;53.656;10.076;2022-10-15T13:16:55;97784.81;;;-145.95;60.09
37648;BME280;23490;53.656;10.076;2022-10-15T13:19:27;97819.91;;;-145.95;60.45
37648;BME280;23490;53.656;10.076;2022-10-15T13:21:57;97836.41;;;-145.95;61.63
37648;BME280;23490;53.656;10.076;2022-10-15T13:24:25;97745.59;;;-145.95;60.88
37648;BME280;23490;53.656;10.076;2022-10-15T13:26:52;97819.91;;;-145.95;59.89
37648;BME280;23490;53.656;10.076;2022-10-15T13:29:28;97828.16;;;-145.95;59.75
37648;BME280;23490;53.656;10.076;2022-10-15T13:31:55;97873.56;;;-145.95;61.09
37648;BME280;23490;53.656;10.076;2022-10-15T13:34:31;97799.25;;;-145.95;61.18
37648;BME280;23490;53.656;10.076;2022-10-15T13:37:01;97879.78;;;-145.95;61.73
37648;BME280;23490;53.656;10.076;2022-10-15T13:39:30;97921.06;;;-145.95;61.80
37648;BME280;23490;53.656;10.076;2022-10-15T13:44:36;97919.00;;;-145.95;62.05
37648;BME280;23490;53.656;10.076;2022-10-15T13:47:02;97956.16;;;-145.95;63.74
37648;BME280;23490;53.656;10.076;2022-10-15T13:49:41;97982.97;;;-145.95;63.15
37648;BME280;23490;53.656;10.076;2022-10-15T13:52:07;97933.44;;;-145.95;63.18
37648;BME280;23490;53.656;10.076;2022-10-15T13:54:32;97976.78;;;-145.95;63.99